Time;durP1;ratioP1;P1;durP2;ratioP2;P2;SDS_P1;SDS_P2;PMS_P1;PMS_P2;Temp;Humidity;BMP_temperature;BMP_pressure;BME280_temperature;BME280_humidity;BME280_pressure;Samples;Min_cycle;Max_cycle;Signal;HPM_P1;HPM_P2
2022/06/19 00:00:49;;;;;;;0.30;0.30;;;19.70;92.60;;;;;;5116311;28;20408;-70
2022/06/19 00:03:29;;;;;;;0.30;0.30;;;19.80;91.90;;;;;;5114879;28;20756;-69
2022/06/19 00:05:55;;;;;;;0.40;0.40;;;19.80;92.40;;;;;;5116293;28;20397;-68
2022/06/19 00:08:20;;;;;;;0.30;0.30;;;19.70;92.80;;;;;;5116470;28;20900;-69
2022/06/19 00:10:48;;;;;;;0.30;0.30;;;19.70;93.10;;;;;;5116197;28;20765;-68
2022/06/19 00:13:14;;;;;;;0.30;0.30;;;19.70;92.60;;;;;;5116134;28;20260;-69
2022/06/19 00:15:40;;;;;;;0.30;0.30;;;19.70;92.70;;;;;;5115978;28;20457;-70
2022/06/19 00:18:05;;;;;;;0.30;0.30;;;19.70;92.70;;;;;;5115977;28;20445;-69
2022/06/19 00:20:31;;;;;;;0.30;0.30;;;19.70;92.30;;;;;;5116069;28;20643;-68
2022/06/19 00:22:57;;;;;;;0.30;0.30;;;19.70;92.00;;;;;;5115696;28;20526;-69
2022/06/19 00:25:22;;;;;;;0.30;0.30;;;19.60;92.60;;;;;;5115718;28;20195;-70
2022/06/19 00:27:48;;;;;;;0.30;0.30;;;19.60;93.10;;;;;;5115745;28;20168;-69
2022/06/19 00:30:14;;;;;;;1.13;1.13;;;19.60;93.60;;;;;;5115826;28;20578;-68
2022/06/19 00:32:40;;;;;;;0.40;0.40;;;19.60;93.70;;;;;;5115529;28;20176;-69
2022/06/19 00:35:06;;;;;;;0.50;0.50;;;19.50;93.80;;;;;;5115754;28;20468;-70
2022/06/19 00:37:33;;;;;;;0.70;0.70;;;19.40;93.80;;;;;;5115701;28;20198;-69
2022/06/19 00:39:59;;;;;;;0.30;0.30;;;19.40;93.80;;;;;;5115749;28;20734;-68
2022/06/19 00:42:26;;;;;;;0.30;0.30;;;19.30;94.00;;;;;;5116070;28;20412;-69
2022/06/19 00:44:52;;;;;;;0.30;0.30;;;19.40;94.10;;;;;;5115410;28;20177;-69
2022/06/19 00:47:24;;;;;;;0.30;0.30;;;19.40;93.80;;;;;;5115472;28;20436;-70
2022/06/19 00:49:53;;;;;;;0.30;0.30;;;19.40;93.50;;;;;;5115413;28;20940;-70
2022/06/19 00:52:23;;;;;;;0.30;0.30;;;19.50;92.80;;;;;;5115280;28;20394;-69
2022/06/19 00:54:58;;;;;;;0.40;0.40;;;19.60;93.50;;;;;;5115442;28;20430;-69
2022/06/19 00:57:26;;;;;;;0.30;0.30;;;19.60;93.80;;;;;;5115297;28;20502;-69
2022/06/19 01:00:01;;;;;;;0.30;0.30;;;19.60;94.00;;;;;;5114008;28;20940;-68
2022/06/19 01:02:27;;;;;;;3.80;0.80;;;19.60;93.80;;;;;;5115242;28;20959;-69
2022/06/19 01:04:55;;;;;;;0.30;0.30;;;19.60;93.40;;;;;;5114278;28;20448;-70
2022/06/19 01:07:22;;;;;;;0.30;0.30;;;19.60;93.50;;;;;;5114905;28;20172;-69
2022/06/19 01:09:51;;;;;;;0.30;0.30;;;19.50;93.50;;;;;;5114971;28;20407;-70
2022/06/19 01:12:17;;;;;;;0.30;0.30;;;19.50;94.40;;;;;;5115119;28;20434;-69
2022/06/19 01:14:45;;;;;;;0.30;0.30;;;19.40;94.30;;;;;;5114930;28;20414;-69
2022/06/19 01:17:13;;;;;;;0.30;0.30;;;19.40;94.10;;;;;;5114796;28;20870;-69
2022/06/19 01:19:41;;;;;;;0.30;0.30;;;19.40;94.60;;;;;;5114710;28;20910;-68
2022/06/19 01:22:25;;;;;;;0.50;0.50;;;19.30;94.60;;;;;;5114678;28;20782;-69
2022/06/19 01:25:03;;;;;;;0.40;0.30;;;19.30;94.80;;;;;;5114907;28;20820;-70
2022/06/19 01:30:18;;;;;;;0.30;0.30;;;19.20;94.80;;;;;;5114813;28;20408;-69
2022/06/19 01:32:47;;;;;;;0.30;0.30;;;19.20;95.30;;;;;;5114480;28;20396;-69
2022/06/19 01:35:15;;;;;;;0.90;0.90;;;19.20;95.30;;;;;;5113157;28;20519;-69
2022/06/19 01:37:41;;;;;;;0.30;0.30;;;19.10;95.50;;;;;;5114613;28;20801;-69
2022/06/19 01:40:18;;;;;;;0.30;0.30;;;19.10;96.10;;;;;;5114582;28;20395;-68
2022/06/19 01:42:43;;;;;;;1.27;1.27;;;19.10;95.90;;;;;;5114396;28;20405;-69
2022/06/19 01:45:09;;;;;;;0.30;0.30;;;19.20;96.00;;;;;;5114228;28;20800;-69
2022/06/19 01:47:36;;;;;;;0.30;0.30;;;19.10;95.60;;;;;;5114365;28;20560;-68
2022/06/19 01:50:07;;;;;;;0.40;0.40;;;19.00;95.60;;;;;;5114380;28;20815;-69
2022/06/19 01:52:33;;;;;;;0.50;0.50;;;19.00;96.10;;;;;;5114227;28;20406;-69
2022/06/19 01:55:06;;;;;;;0.30;0.30;;;19.10;96.10;;;;;;5114188;28;20418;-69
2022/06/19 01:57:33;;;;;;;0.30;0.30;;;19.10;95.30;;;;;;5114308;28;20527;-69
2022/06/19 02:00:01;;;;;;;0.40;0.40;;;19.00;95.60;;;;;;5114390;28;20426;-69
2022/06/19 02:02:28;;;;;;;0.30;0.30;;;19.10;95.50;;;;;;5114067;28;20785;-70
2022/06/19 02:04:55;;;;;;;0.50;0.50;;;19.00;95.60;;;;;;5114144;28;20430;-69
2022/06/19 02:07:23;;;;;;;0.50;0.50;;;19.00;95.70;;;;;;5113917;28;20501;-69
2022/06/19 02:09:51;;;;;;;0.30;0.30;;;18.90;95.90;;;;;;5113675;28;20455;-70
2022/06/19 02:12:18;;;;;;;0.30;0.30;;;18.90;95.90;;;;;;5113716;28;20417;-70
2022/06/19 02:14:43;;;;;;;0.30;0.30;;;18.90;96.10;;;;;;5113850;28;20473;-69
2022/06/19 02:17:22;;;;;;;0.83;0.83;;;18.80;96.40;;;;;;5113780;28;20433;-70
2022/06/19 02:19:48;;;;;;;0.50;0.50;;;18.90;96.40;;;;;;5114110;28;20518;-69
2022/06/19 02:22:15;;;;;;;0.30;0.30;;;18.90;96.90;;;;;;5113719;28;20422;-69
2022/06/19 02:24:42;;;;;;;0.30;0.30;;;18.80;96.80;;;;;;5113864;28;20427;-68
2022/06/19 02:27:09;;;;;;;0.30;0.30;;;18.80;97.00;;;;;;5113873;28;21011;-69
2022/06/19 02:29:38;;;;;;;0.30;0.30;;;18.70;97.40;;;;;;5113735;28;20466;-69
2022/06/19 02:32:05;;;;;;;0.30;0.30;;;18.60;97.30;;;;;;5113763;28;20886;-69
2022/06/19 02:34:42;;;;;;;0.30;0.30;;;18.70;96.80;;;;;;5113870;28;20425;-69
2022/06/19 02:37:24;;;;;;;0.30;0.30;;;18.80;96.80;;;;;;5113982;28;20478;-69
2022/06/19 02:39:56;;;;;;;0.40;0.40;;;18.90;97.30;;;;;;5113825;28;20427;-69
2022/06/19 02:42:22;;;;;;;0.60;0.60;;;18.80;97.30;;;;;;5113488;28;20454;-69
2022/06/19 02:44:51;;;;;;;0.30;0.30;;;18.80;97.20;;;;;;5112070;28;20517;-69
2022/06/19 02:47:17;;;;;;;1.50;1.40;;;18.70;97.30;;;;;;5113348;28;20182;-69
2022/06/19 02:49:43;;;;;;;0.70;0.63;;;18.70;97.00;;;;;;5113800;28;20416;-70
2022/06/19 02:52:11;;;;;;;0.30;0.30;;;18.70;97.30;;;;;;5113504;28;20400;-69
2022/06/19 02:54:36;;;;;;;0.30;0.30;;;18.70;97.50;;;;;;5113491;28;20427;-69
2022/06/19 02:57:03;;;;;;;0.30;0.30;;;18.70;97.10;;;;;;5113488;28;20472;-69
2022/06/19 02:59:29;;;;;;;0.30;0.30;;;18.70;97.30;;;;;;5113732;28;20166;-69
2022/06/19 03:01:54;;;;;;;0.30;0.30;;;18.70;97.50;;;;;;5113506;28;20415;-69
2022/06/19 03:04:25;;;;;;;0.30;0.30;;;18.70;97.60;;;;;;5113280;28;20502;-69
2022/06/19 03:06:52;;;;;;;0.30;0.30;;;18.70;97.90;;;;;;5113576;28;20166;-69
2022/06/19 03:09:19;;;;;;;0.30;0.30;;;18.70;98.10;;;;;;5113523;28;20412;-69
2022/06/19 03:11:44;;;;;;;0.40;0.40;;;18.70;97.90;;;;;;5113498;28;20403;-69
2022/06/19 03:14:10;;;;;;;0.30;0.30;;;18.70;98.00;;;;;;5113291;28;20435;-69
2022/06/19 03:16:36;;;;;;;1.40;1.30;;;18.70;97.80;;;;;;5113396;28;20666;-69
2022/06/19 03:19:02;;;;;;;0.30;0.30;;;18.70;97.60;;;;;;5113362;28;20290;-69
2022/06/19 03:21:29;;;;;;;0.30;0.30;;;18.70;97.80;;;;;;5113471;28;20162;-68
2022/06/19 03:23:54;;;;;;;0.30;0.30;;;18.70;97.90;;;;;;5113131;28;20500;-69
2022/06/19 03:26:20;;;;;;;0.30;0.30;;;18.70;97.90;;;;;;5113262;28;20402;-69
2022/06/19 03:28:45;;;;;;;0.30;0.30;;;18.70;98.10;;;;;;5115463;28;20256;-68
2022/06/19 03:31:15;;;;;;;0.30;0.30;;;18.60;98.40;;;;;;5116944;28;20210;-69
2022/06/19 03:33:41;;;;;;;0.30;0.30;;;18.60;99.10;;;;;;5116779;28;20175;-68
2022/06/19 03:36:07;;;;;;;0.30;0.30;;;18.60;98.70;;;;;;5116949;28;20918;-68
2022/06/19 03:38:32;;;;;;;0.30;0.30;;;18.50;98.70;;;;;;5117040;28;20225;-70
2022/06/19 03:40:58;;;;;;;0.70;0.70;;;18.60;98.70;;;;;;5116884;28;20200;-70
2022/06/19 03:43:24;;;;;;;0.30;0.30;;;18.70;98.60;;;;;;5116517;28;20174;-69
2022/06/19 03:45:49;;;;;;;0.77;0.77;;;18.70;98.20;;;;;;5116686;28;20742;-69
2022/06/19 03:48:15;;;;;;;0.30;0.30;;;18.80;98.50;;;;;;5116753;28;20207;-68
2022/06/19 03:50:41;;;;;;;0.30;0.30;;;18.80;98.70;;;;;;5117139;28;20176;-70
2022/06/19 03:53:08;;;;;;;0.30;0.30;;;18.80;98.70;;;;;;5116449;28;20260;-69
2022/06/19 03:55:34;;;;;;;0.30;0.30;;;18.80;98.90;;;;;;5116380;28;20529;-70
2022/06/19 03:58:00;;;;;;;0.30;0.30;;;18.80;98.90;;;;;;5116810;28;21010;-70
2022/06/19 04:00:25;;;;;;;0.30;0.30;;;18.80;98.90;;;;;;5116402;28;20427;-70
2022/06/19 04:02:51;;;;;;;0.67;0.67;;;18.80;99.00;;;;;;5116174;28;20478;-68
2022/06/19 04:05:18;;;;;;;1.80;1.70;;;18.80;99.10;;;;;;5116237;28;20666;-69
2022/06/19 04:07:49;;;;;;;0.30;0.30;;;18.70;99.30;;;;;;5116449;28;20213;-69
2022/06/19 04:10:16;;;;;;;0.30;0.30;;;18.80;99.30;;;;;;5116321;28;20456;-69
2022/06/19 04:12:42;;;;;;;0.37;0.37;;;18.90;99.10;;;;;;5116057;28;20467;-68
2022/06/19 04:15:10;;;;;;;0.30;0.30;;;18.90;99.10;;;;;;5115906;28;20821;-68
2022/06/19 04:17:36;;;;;;;0.40;0.40;;;19.00;99.00;;;;;;5116171;28;20287;-69
2022/06/19 04:20:03;;;;;;;0.30;0.30;;;19.20;98.50;;;;;;5116206;28;20408;-68
2022/06/19 04:22:29;;;;;;;0.30;0.30;;;19.20;98.70;;;;;;5115732;28;20427;-69
2022/06/19 04:24:54;;;;;;;0.30;0.30;;;19.40;98.90;;;;;;5115881;28;20427;-70
2022/06/19 04:27:20;;;;;;;0.57;0.57;;;19.60;99.00;;;;;;5116008;28;20576;-70
2022/06/19 04:29:46;;;;;;;0.30;0.30;;;19.90;98.90;;;;;;5115838;28;20252;-70
2022/06/19 04:32:12;;;;;;;0.40;0.40;;;20.20;99.00;;;;;;5116006;28;20675;-69
2022/06/19 04:34:38;;;;;;;0.30;0.30;;;20.40;98.60;;;;;;5115756;28;20237;-69
2022/06/19 04:37:04;;;;;;;0.30;0.30;;;20.50;97.80;;;;;;5115684;28;20886;-70
2022/06/19 04:39:29;;;;;;;0.30;0.30;;;20.70;97.20;;;;;;5114451;28;20210;-70
2022/06/19 04:41:55;;;;;;;0.30;0.30;;;20.90;97.00;;;;;;5115508;28;20161;-70
2022/06/19 04:44:21;;;;;;;0.30;0.30;;;21.00;97.00;;;;;;5115261;28;20185;-69
2022/06/19 04:46:47;;;;;;;0.30;0.30;;;21.00;96.90;;;;;;5115549;28;20168;-70
2022/06/19 04:49:14;;;;;;;0.30;0.30;;;21.20;96.60;;;;;;5115548;28;20430;-69
2022/06/19 04:51:40;;;;;;;0.30;0.30;;;21.40;96.50;;;;;;5115630;28;20217;-70
2022/06/19 04:54:06;;;;;;;0.40;0.40;;;21.70;96.50;;;;;;5115313;28;20506;-68
2022/06/19 04:56:33;;;;;;;0.40;0.40;;;22.10;95.80;;;;;;5115145;28;20403;-69
2022/06/19 04:58:59;;;;;;;0.30;0.30;;;22.30;95.30;;;;;;5115129;28;20534;-70
2022/06/19 05:01:31;;;;;;;0.40;0.40;;;22.50;95.20;;;;;;5115233;28;20535;-70
2022/06/19 05:03:59;;;;;;;0.50;0.50;;;22.70;93.80;;;;;;5115048;28;20267;-69
2022/06/19 05:06:25;;;;;;;0.30;0.30;;;22.80;93.70;;;;;;5115116;28;20405;-69
2022/06/19 05:08:51;;;;;;;0.30;0.30;;;22.90;94.30;;;;;;5115207;28;20405;-70
2022/06/19 05:11:18;;;;;;;0.90;0.80;;;22.90;94.80;;;;;;5115486;28;20409;-70
2022/06/19 05:13:44;;;;;;;0.30;0.30;;;23.00;94.90;;;;;;5114908;28;20755;-69
2022/06/19 05:16:15;;;;;;;0.30;0.30;;;23.20;94.90;;;;;;5114940;28;20376;-70
2022/06/19 05:18:42;;;;;;;1.73;1.63;;;23.30;94.60;;;;;;5115076;28;20532;-71
2022/06/19 05:21:08;;;;;;;0.40;0.40;;;23.30;93.60;;;;;;5114964;28;20396;-70
2022/06/19 05:23:36;;;;;;;0.90;0.90;;;23.50;93.30;;;;;;5114395;28;20407;-71
2022/06/19 05:26:05;;;;;;;1.70;1.03;;;23.60;92.90;;;;;;5114742;28;20398;-70
2022/06/19 05:28:33;;;;;;;0.60;0.60;;;23.70;93.40;;;;;;5114935;28;20455;-69
2022/06/19 05:30:59;;;;;;;1.70;1.60;;;23.80;93.50;;;;;;5114979;28;20429;-69
2022/06/19 05:33:26;;;;;;;0.40;0.40;;;23.90;93.40;;;;;;5114410;28;20402;-70
2022/06/19 05:35:52;;;;;;;0.40;0.40;;;24.10;93.30;;;;;;5114526;28;20412;-70
2022/06/19 05:38:17;;;;;;;0.50;0.50;;;24.20;93.30;;;;;;5114353;28;20832;-69
2022/06/19 05:40:43;;;;;;;1.27;1.13;;;24.40;93.00;;;;;;5114946;28;20632;-70
2022/06/19 05:43:09;;;;;;;0.63;0.63;;;24.80;92.60;;;;;;5114356;28;20249;-70
2022/06/19 05:45:35;;;;;;;0.30;0.30;;;25.30;92.00;;;;;;5114654;28;20192;-70
2022/06/19 05:48:01;;;;;;;0.30;0.30;;;25.60;91.50;;;;;;5114441;28;20413;-69
2022/06/19 05:50:26;;;;;;;0.60;0.60;;;25.60;91.20;;;;;;5113990;28;20737;-69
2022/06/19 05:52:52;;;;;;;0.70;0.70;;;25.70;91.30;;;;;;5114118;28;20670;-70
2022/06/19 05:55:17;;;;;;;0.40;0.40;;;25.70;91.50;;;;;;5114163;28;20198;-70
2022/06/19 05:57:43;;;;;;;0.40;0.40;;;25.80;91.10;;;;;;5114237;28;20203;-70
2022/06/19 06:00:09;;;;;;;0.87;0.87;;;25.90;91.10;;;;;;5114300;28;20171;-70
2022/06/19 06:02:35;;;;;;;0.40;0.40;;;26.10;91.00;;;;;;5114116;28;20539;-70
2022/06/19 06:05:02;;;;;;;0.40;0.40;;;26.50;90.20;;;;;;5114282;28;20401;-70
2022/06/19 06:07:28;;;;;;;0.30;0.30;;;27.20;87.80;;;;;;5114291;28;20455;-71
2022/06/19 06:09:54;;;;;;;0.57;0.57;;;27.90;86.60;;;;;;5114124;28;20394;-71
2022/06/19 06:12:19;;;;;;;0.63;0.63;;;28.80;84.10;;;;;;5114103;28;20401;-70
2022/06/19 06:14:45;;;;;;;0.40;0.40;;;29.50;82.40;;;;;;5114063;28;20218;-70
2022/06/19 06:17:11;;;;;;;0.73;0.40;;;30.10;76.20;;;;;;5113853;28;20221;-70
2022/06/19 06:19:36;;;;;;;0.60;0.60;;;30.90;74.10;;;;;;5114117;28;20225;-70
2022/06/19 06:22:03;;;;;;;0.63;0.63;;;31.80;70.00;;;;;;5113655;28;20200;-71
2022/06/19 06:24:30;;;;;;;0.30;0.30;;;32.80;67.20;;;;;;5113903;28;20234;-70
2022/06/19 06:26:57;;;;;;;1.43;1.30;;;33.90;65.00;;;;;;5114038;28;20437;-71
2022/06/19 06:29:24;;;;;;;0.70;0.70;;;34.70;62.30;;;;;;5113983;28;20413;-70
2022/06/19 06:31:49;;;;;;;0.40;0.40;;;35.20;57.90;;;;;;5114014;28;20406;-71
2022/06/19 06:34:15;;;;;;;1.53;0.63;;;35.50;55.80;;;;;;5113782;28;20429;-70
2022/06/19 06:36:41;;;;;;;0.53;0.53;;;35.50;55.40;;;;;;5113769;28;20172;-71
2022/06/19 06:39:06;;;;;;;0.70;0.70;;;35.60;53.60;;;;;;5113799;28;20203;-71
2022/06/19 06:41:32;;;;;;;1.17;1.17;;;35.90;54.60;;;;;;5113852;28;20251;-71
2022/06/19 06:43:57;;;;;;;1.30;1.30;;;36.40;55.30;;;;;;5113518;28;20528;-71
2022/06/19 06:46:25;;;;;;;0.43;0.43;;;37.00;52.90;;;;;;5113764;28;20168;-70
2022/06/19 06:48:54;;;;;;;0.93;0.93;;;37.70;51.20;;;;;;5113882;28;20211;-71
2022/06/19 06:51:26;;;;;;;0.50;0.50;;;38.10;50.50;;;;;;5113660;28;20410;-71
2022/06/19 06:53:53;;;;;;;0.80;0.80;;;38.60;49.10;;;;;;5113579;28;20424;-71
2022/06/19 06:56:20;;;;;;;2.00;1.90;;;39.10;48.90;;;;;;5113675;28;20441;-70
2022/06/19 06:58:46;;;;;;;0.40;0.40;;;39.70;47.70;;;;;;5113773;28;20536;-70
2022/06/19 07:01:15;;;;;;;0.60;0.60;;;39.90;44.50;;;;;;5113800;28;20394;-70
2022/06/19 07:03:41;;;;;;;0.70;0.63;;;40.40;44.70;;;;;;5115410;28;20815;-72
2022/06/19 07:06:07;;;;;;;0.80;0.80;;;40.80;43.50;;;;;;5117454;28;20410;-72
2022/06/19 07:08:33;;;;;;;0.50;0.50;;;41.10;43.40;;;;;;5117504;28;20893;-71
2022/06/19 07:10:59;;;;;;;0.30;0.30;;;41.20;43.20;;;;;;5117566;28;20172;-72
2022/06/19 07:13:24;;;;;;;0.70;0.70;;;41.50;43.50;;;;;;5117320;28;20175;-71
2022/06/19 07:15:51;;;;;;;2.40;2.30;;;41.80;42.10;;;;;;5117200;28;20191;-71
2022/06/19 07:18:18;;;;;;;1.10;1.00;;;42.20;40.40;;;;;;5117871;28;20573;-71
2022/06/19 07:20:43;;;;;;;0.60;0.60;;;42.30;40.50;;;;;;5117441;27;20400;-71
2022/06/19 07:23:09;;;;;;;0.60;0.57;;;42.70;40.10;;;;;;5116936;28;20418;-72
2022/06/19 07:25:34;;;;;;;0.73;0.50;;;42.90;38.00;;;;;;5117116;28;20566;-71
2022/06/19 07:28:01;;;;;;;1.00;0.90;;;42.60;38.00;;;;;;5117236;28;20204;-71
2022/06/19 07:30:28;;;;;;;0.40;0.30;;;42.50;37.60;;;;;;5116997;28;20799;-71
2022/06/19 07:32:55;;;;;;;1.60;1.40;;;42.60;37.20;;;;;;5116784;28;20633;-71
2022/06/19 07:35:22;;;;;;;0.50;0.50;;;42.70;38.90;;;;;;5116868;28;20426;-71
2022/06/19 07:37:47;;;;;;;0.90;0.90;;;43.10;37.30;;;;;;5116869;28;20506;-72
2022/06/19 07:40:15;;;;;;;0.50;0.47;;;43.30;35.80;;;;;;5116959;28;20402;-70
2022/06/19 07:42:42;;;;;;;1.20;0.97;;;43.70;36.60;;;;;;5116842;28;20222;-71
2022/06/19 07:45:08;;;;;;;0.60;0.50;;;44.10;35.20;;;;;;5116676;28;20421;-72
2022/06/19 07:50:18;;;;;;;0.60;0.53;;;44.80;34.70;;;;;;5116773;28;20396;-71
2022/06/19 07:52:46;;;;;;;1.07;0.87;;;45.00;34.80;;;;;;5116528;28;20901;-72
2022/06/19 07:55:16;;;;;;;1.07;1.07;;;45.10;33.70;;;;;;5116454;28;20425;-72
2022/06/19 07:57:42;;;;;;;0.33;0.33;;;44.40;34.30;;;;;;5116191;28;21022;-70
2022/06/19 08:00:12;;;;;;;0.30;0.30;;;44.30;35.50;;;;;;5116467;28;20395;-71
2022/06/19 08:02:37;;;;;;;0.83;0.83;;;44.00;33.70;;;;;;5116217;28;20297;-70
2022/06/19 08:05:05;;;;;;;0.73;0.73;;;43.00;33.90;;;;;;5116255;28;20505;-71
2022/06/19 08:07:31;;;;;;;0.70;0.70;;;42.20;34.60;;;;;;5115068;28;20178;-71
2022/06/19 08:09:57;;;;;;;0.40;0.40;;;41.50;35.90;;;;;;5116431;28;20806;-71
2022/06/19 08:12:22;;;;;;;0.63;0.63;;;40.60;35.40;;;;;;5116208;28;20411;-71
2022/06/19 08:14:48;;;;;;;4.00;1.03;;;40.30;36.40;;;;;;5115862;28;20188;-71
2022/06/19 08:17:14;;;;;;;1.10;1.10;;;40.10;36.90;;;;;;5116040;28;20169;-70
2022/06/19 08:19:40;;;;;;;0.40;0.40;;;39.80;36.60;;;;;;5116283;28;20579;-71
2022/06/19 08:22:05;;;;;;;0.53;0.37;;;39.60;37.20;;;;;;5115858;28;20455;-70
2022/06/19 08:24:31;;;;;;;1.03;1.03;;;39.60;36.60;;;;;;5116045;28;20195;-70
2022/06/19 08:27:06;;;;;;;0.40;0.40;;;39.50;37.60;;;;;;5115855;28;20176;-71
2022/06/19 08:29:33;;;;;;;0.50;0.50;;;39.40;37.10;;;;;;5116283;28;20164;-71
2022/06/19 08:31:58;;;;;;;0.40;0.40;;;39.80;37.40;;;;;;5115892;28;20441;-70
2022/06/19 08:34:26;;;;;;;0.70;0.70;;;40.20;35.60;;;;;;5115625;28;20453;-70
2022/06/19 08:36:51;;;;;;;1.33;0.90;;;40.10;34.80;;;;;;5115740;28;20640;-71
2022/06/19 08:39:19;;;;;;;0.90;0.90;;;39.20;34.60;;;;;;5115740;28;20480;-70
2022/06/19 08:41:54;;;;;;;0.93;0.93;;;38.70;36.00;;;;;;5115579;28;20168;-71
2022/06/19 08:44:23;;;;;;;0.60;0.60;;;39.20;36.30;;;;;;5115329;27;20475;-70
2022/06/19 08:47:00;;;;;;;1.17;1.17;;;39.20;38.20;;;;;;5115626;28;20447;-70
2022/06/19 08:49:35;;;;;;;1.20;1.10;;;39.60;35.00;;;;;;5115666;28;20393;-71
2022/06/19 08:52:12;;;;;;;0.77;0.67;;;40.20;36.40;;;;;;5115697;28;20480;-71
2022/06/19 08:55:02;;;;;;;0.67;0.67;;;40.90;34.60;;;;;;5115280;28;20515;-71
2022/06/19 08:57:42;;;;;;;0.53;0.53;;;41.20;32.50;;;;;;5115500;28;20894;-72
2022/06/19 09:00:27;;;;;;;0.50;0.50;;;41.70;32.40;;;;;;5115432;28;20477;-71
2022/06/19 09:03:05;;;;;;;0.60;0.50;;;42.00;32.30;;;;;;5115109;28;20409;-70
2022/06/19 09:05:50;;;;;;;0.40;0.40;;;41.80;32.40;;;;;;5115221;28;20420;-70
2022/06/19 09:08:56;;;;;;;0.50;0.50;;;42.10;33.60;;;;;;5115255;28;20413;-72
2022/06/19 09:11:57;;;;;;;0.70;0.70;;;42.70;31.70;;;;;;5115029;28;20390;-70
2022/06/19 09:14:36;;;;;;;0.93;0.80;;;42.30;34.20;;;;;;5107779;28;20436;-71
2022/06/19 09:17:09;;;;;;;1.27;1.17;;;42.50;31.00;;;;;;5115184;28;20382;-71
2022/06/19 09:19:44;;;;;;;1.03;0.90;;;42.70;31.20;;;;;;5115463;28;20477;-70
2022/06/19 09:22:19;;;;;;;0.60;0.60;;;42.90;32.50;;;;;;5114902;28;20409;-70
2022/06/19 09:25:15;;;;;;;0.63;0.63;;;42.90;30.90;;;;;;5114771;28;20453;-72
2022/06/19 09:28:01;;;;;;;1.70;1.60;;;42.50;31.70;;;;;;5114808;28;20398;-71
2022/06/19 09:30:34;;;;;;;0.80;0.80;;;42.60;31.40;;;;;;5114943;28;20406;-71
2022/06/19 09:33:14;;;;;;;0.90;0.87;;;42.10;30.60;;;;;;5114570;28;20405;-71
2022/06/19 09:35:46;;;;;;;0.50;0.50;;;41.60;30.20;;;;;;5114558;28;20429;-71
2022/06/19 09:38:26;;;;;;;0.60;0.60;;;40.80;30.70;;;;;;5114783;28;20449;-71
2022/06/19 09:41:00;;;;;;;1.03;1.03;;;40.20;32.80;;;;;;5114615;28;20754;-70
2022/06/19 09:43:36;;;;;;;2.43;1.13;;;40.50;34.10;;;;;;5114443;28;20424;-71
2022/06/19 09:46:13;;;;;;;0.50;0.50;;;40.70;33.90;;;;;;5114442;28;20909;-71
2022/06/19 09:49:13;;;;;;;0.50;0.50;;;40.70;32.70;;;;;;5114631;28;20401;-71
2022/06/19 09:51:58;;;;;;;0.50;0.50;;;40.20;34.10;;;;;;5071650;28;20933;-71
2022/06/19 09:54:32;;;;;;;0.63;0.63;;;40.40;34.90;;;;;;5110786;28;20567;-70
2022/06/19 09:57:48;;;;;;;1.27;0.97;;;40.30;34.80;;;;;;5114322;28;20401;-71
2022/06/19 10:00:23;;;;;;;1.03;1.03;;;40.60;32.70;;;;;;5104857;28;20419;-71
2022/06/19 10:03:09;;;;;;;1.43;1.33;;;40.00;33.60;;;;;;5114382;28;20471;-70
2022/06/19 10:05:41;;;;;;;0.80;0.80;;;39.30;33.20;;;;;;5113684;28;20444;-71
2022/06/19 10:08:18;;;;;;;1.43;1.43;;;38.40;34.50;;;;;;5114175;28;20398;-70
2022/06/19 10:10:52;;;;;;;1.50;1.23;;;38.40;36.80;;;;;;5114256;28;20382;-71
2022/06/19 10:13:44;;;;;;;0.60;0.60;;;39.00;34.50;;;;;;5113808;28;20737;-71
2022/06/19 10:16:50;;;;;;;1.33;1.33;;;39.10;35.10;;;;;;5114205;28;20941;-71
2022/06/19 10:19:27;;;;;;;0.60;0.60;;;39.00;34.90;;;;;;5112261;28;20457;-71
2022/06/19 10:22:23;;;;;;;0.67;0.67;;;39.00;36.80;;;;;;5114024;28;20886;-71
2022/06/19 10:25:01;;;;;;;1.03;0.93;;;39.00;36.40;;;;;;5113948;28;20426;-70
2022/06/19 10:27:26;;;;;;;0.50;0.50;;;38.50;37.30;;;;;;5113845;28;20393;-71
2022/06/19 10:30:11;;;;;;;1.60;1.50;;;38.60;36.70;;;;;;5113983;28;20533;-70
2022/06/19 10:32:45;;;;;;;0.93;0.93;;;38.60;38.30;;;;;;5113894;28;20172;-71
2022/06/19 10:35:30;;;;;;;0.60;0.40;;;38.70;34.20;;;;;;5113726;28;20419;-71
2022/06/19 10:38:23;;;;;;;0.60;0.60;;;38.80;37.40;;;;;;5116528;28;20884;-71
2022/06/19 10:42:00;;;;;;;0.40;0.40;;;38.70;36.20;;;;;;5118236;28;20382;-71
2022/06/19 10:44:14;;;;;;;0.50;0.50;;;38.40;35.10;;;;;;5117658;28;20426;-71
2022/06/19 10:46:41;;;;;;;0.87;0.77;;;38.20;34.80;;;;;;5118126;28;20394;-71
2022/06/19 10:49:39;;;;;;;0.77;0.77;;;38.10;34.60;;;;;;5118064;28;20405;-71
2022/06/19 10:52:21;;;;;;;0.80;0.80;;;38.00;38.40;;;;;;5117310;28;20418;-71
2022/06/19 10:54:53;;;;;;;0.70;0.70;;;38.00;37.10;;;;;;5117915;28;20428;-71
2022/06/19 10:57:36;;;;;;;0.60;0.60;;;37.60;33.90;;;;;;5117648;28;20749;-72
2022/06/19 11:00:05;;;;;;;0.40;0.40;;;37.00;36.90;;;;;;5117803;28;20393;-70
2022/06/19 11:05:31;;;;;;;0.40;0.40;;;35.60;38.80;;;;;;5117848;28;20412;-71
2022/06/19 11:07:57;;;;;;;0.60;0.60;;;35.10;40.90;;;;;;5117757;28;20394;-71
2022/06/19 11:10:23;;;;;;;0.60;0.60;;;35.00;37.70;;;;;;5117549;28;20450;-71
2022/06/19 11:12:56;;;;;;;0.80;0.80;;;34.90;38.90;;;;;;5117386;28;20175;-70
2022/06/19 11:15:24;;;;;;;1.00;1.00;;;34.80;38.50;;;;;;5117381;28;20199;-71
2022/06/19 11:18:19;;;;;;;1.17;1.17;;;34.80;38.90;;;;;;5117078;28;20441;-70
2022/06/19 11:21:06;;;;;;;1.20;1.10;;;34.80;42.00;;;;;;5117366;28;20489;-71
2022/06/19 11:23:35;;;;;;;0.50;0.50;;;34.70;39.50;;;;;;5116832;28;20452;-70
2022/06/19 11:26:12;;;;;;;1.43;1.37;;;34.40;39.10;;;;;;5117033;28;20394;-70
2022/06/19 11:29:01;;;;;;;1.80;0.50;;;34.30;39.80;;;;;;5117323;28;20404;-70
2022/06/19 11:31:40;;;;;;;2.33;2.23;;;34.20;41.10;;;;;;5117221;28;20394;-70
2022/06/19 11:34:47;;;;;;;0.50;0.50;;;34.10;44.00;;;;;;5116970;28;20948;-71
2022/06/19 11:37:28;;;;;;;0.67;0.67;;;34.10;40.70;;;;;;5117196;28;20443;-70
2022/06/19 11:39:59;;;;;;;0.77;0.77;;;34.00;40.50;;;;;;5117095;28;20459;-71
2022/06/19 11:42:31;;;;;;;2.30;1.43;;;33.90;41.20;;;;;;5116959;28;20436;-71
2022/06/19 11:44:58;;;;;;;2.00;1.33;;;34.00;39.70;;;;;;5116795;28;20418;-71
2022/06/19 11:47:27;;;;;;;1.63;1.57;;;34.10;39.30;;;;;;5116741;28;20394;-70
2022/06/19 11:50:27;;;;;;;0.60;0.60;;;34.20;40.30;;;;;;5116106;28;20821;-70
2022/06/19 11:53:05;;;;;;;0.50;0.50;;;34.10;40.80;;;;;;5109639;28;20447;-71
2022/06/19 11:55:40;;;;;;;1.60;1.50;;;33.80;39.50;;;;;;5116526;28;20401;-70
2022/06/19 11:58:31;;;;;;;0.80;0.80;;;33.50;39.40;;;;;;5116500;28;20445;-70
2022/06/19 12:01:03;;;;;;;0.50;0.50;;;33.20;40.30;;;;;;5116690;28;20398;-71
2022/06/19 12:03:36;;;;;;;1.50;1.40;;;33.20;43.30;;;;;;5116196;28;20451;-70
2022/06/19 12:06:08;;;;;;;1.13;1.03;;;33.20;43.10;;;;;;5116733;28;20379;-70
2022/06/19 12:08:39;;;;;;;0.60;0.57;;;33.10;41.10;;;;;;5114996;28;20418;-70
2022/06/19 12:11:08;;;;;;;2.77;2.10;;;33.20;40.90;;;;;;5116340;28;20422;-71
2022/06/19 12:13:39;;;;;;;1.40;1.33;;;33.30;41.30;;;;;;5115938;28;20429;-69
2022/06/19 12:16:23;;;;;;;1.00;0.90;;;33.30;39.10;;;;;;5116136;28;20501;-71
2022/06/19 12:18:49;;;;;;;0.40;0.40;;;33.40;41.30;;;;;;5116081;28;20456;-70
2022/06/19 12:21:35;;;;;;;0.60;0.50;;;33.30;42.70;;;;;;5116441;28;20491;-70
2022/06/19 12:24:18;;;;;;;0.57;0.57;;;33.30;42.20;;;;;;5115960;28;20441;-70
2022/06/19 12:26:52;;;;;;;0.90;0.90;;;33.00;43.50;;;;;;5116243;28;20402;-70
2022/06/19 12:29:42;;;;;;;1.90;1.80;;;32.80;41.60;;;;;;5116134;28;20421;-71
2022/06/19 12:32:19;;;;;;;0.40;0.40;;;32.90;41.80;;;;;;5115977;28;20409;-70
2022/06/19 12:34:48;;;;;;;0.67;0.63;;;32.70;42.20;;;;;;5115859;27;20425;-71
2022/06/19 12:37:23;;;;;;;0.60;0.60;;;32.60;42.40;;;;;;5116015;28;20402;-71
2022/06/19 12:39:49;;;;;;;2.80;0.93;;;32.50;41.90;;;;;;5115698;28;20437;-70
2022/06/19 12:42:36;;;;;;;0.50;0.50;;;32.50;41.90;;;;;;5115591;28;20397;-71
2022/06/19 12:45:36;;;;;;;0.50;0.50;;;32.40;41.90;;;;;;5115802;28;20414;-71
2022/06/19 12:48:34;;;;;;;0.80;0.80;;;32.10;42.30;;;;;;5115969;27;20451;-70
2022/06/19 12:51:12;;;;;;;0.83;0.83;;;32.00;42.40;;;;;;5115738;28;20554;-70
2022/06/19 12:54:02;;;;;;;0.50;0.40;;;31.90;41.70;;;;;;5115208;28;20401;-70
2022/06/19 12:56:49;;;;;;;0.87;0.87;;;31.80;42.80;;;;;;5115346;28;20417;-69
2022/06/19 12:59:36;;;;;;;1.57;0.57;;;31.80;42.40;;;;;;5114172;28;20810;-71
2022/06/19 13:02:40;;;;;;;0.80;0.73;;;32.00;44.80;;;;;;5114134;28;20477;-70
2022/06/19 13:05:41;;;;;;;1.50;1.40;;;32.10;43.10;;;;;;5115302;28;20417;-70
2022/06/19 13:08:33;;;;;;;1.47;1.47;;;32.20;41.40;;;;;;5115181;28;20411;-70
2022/06/19 13:11:15;;;;;;;0.50;0.50;;;32.40;42.60;;;;;;5113014;28;20414;-71
2022/06/19 13:13:59;;;;;;;0.80;0.80;;;32.50;41.60;;;;;;5115135;28;20390;-70
2022/06/19 13:16:42;;;;;;;1.90;1.23;;;32.40;41.20;;;;;;5114959;28;20438;-70
2022/06/19 13:19:39;;;;;;;0.97;0.50;;;32.40;41.90;;;;;;5114920;28;20449;-70